createdAt,value
2022-12-08T00:00:14.148Z,7.20
2022-12-08T00:03:01.502Z,7.00
2022-12-08T00:05:46.439Z,6.90
2022-12-08T00:08:31.521Z,6.20
2022-12-08T00:10:59.069Z,5.70
2022-12-08T00:13:26.322Z,5.30
2022-12-08T00:15:53.472Z,5.30
2022-12-08T00:18:20.483Z,4.50
2022-12-08T00:20:47.583Z,4.50
2022-12-08T00:23:14.616Z,4.20
2022-12-08T00:25:41.628Z,3.40
2022-12-08T00:28:09.264Z,4.40
2022-12-08T00:30:36.317Z,3.70
2022-12-08T00:33:03.733Z,3.10
2022-12-08T00:35:30.786Z,3.50
2022-12-08T00:38:01.035Z,2.80
2022-12-08T00:40:28.458Z,3.00
2022-12-08T00:42:56.530Z,3.10
2022-12-08T00:45:24.498Z,2.30
2022-12-08T00:47:51.647Z,2.70
2022-12-08T00:50:18.902Z,2.80
2022-12-08T00:52:46.255Z,2.60
2022-12-08T00:55:13.834Z,3.10
2022-12-08T00:57:40.973Z,2.70
2022-12-08T01:00:10.124Z,2.70
2022-12-08T01:02:37.425Z,3.00
2022-12-08T01:05:04.567Z,2.60
2022-12-08T01:07:32.233Z,2.50
2022-12-08T01:09:59.388Z,2.90
2022-12-08T01:12:26.890Z,2.80
2022-12-08T01:14:55.889Z,2.90
2022-12-08T01:17:26.365Z,3.00
2022-12-08T01:19:54.146Z,2.70
2022-12-08T01:22:21.380Z,2.30
2022-12-08T01:24:48.731Z,2.80
2022-12-08T01:27:18.032Z,2.40
2022-12-08T01:29:45.480Z,2.80
2022-12-08T01:32:12.645Z,2.70
2022-12-08T01:34:39.791Z,3.10
2022-12-08T01:37:07.145Z,3.10
2022-12-08T01:39:34.193Z,2.70
2022-12-08T01:42:01.450Z,3.10
2022-12-08T01:45:02.949Z,2.90
2022-12-08T01:47:35.773Z,3.00
2022-12-08T01:50:03.859Z,2.50
2022-12-08T01:52:36.968Z,2.50
2022-12-08T01:55:08.500Z,2.60
2022-12-08T01:57:38.824Z,2.90
2022-12-08T02:00:09.725Z,2.90
2022-12-08T02:02:43.244Z,2.60
2022-12-08T02:05:12.092Z,2.90
2022-12-08T02:07:39.737Z,2.40
2022-12-08T02:10:08.767Z,2.80
2022-12-08T02:12:35.981Z,2.90
2022-12-08T02:15:05.445Z,2.80
2022-12-08T02:17:50.741Z,2.80
2022-12-08T02:20:37.246Z,2.90
2022-12-08T02:23:12.453Z,3.10
2022-12-08T02:25:51.462Z,3.60
2022-12-08T02:28:39.452Z,3.10
2022-12-08T02:31:22.562Z,3.30
2022-12-08T02:34:11.128Z,3.10
2022-12-08T02:36:45.559Z,3.10
2022-12-08T02:39:24.575Z,3.40
2022-12-08T02:41:58.683Z,3.50
2022-12-08T02:44:30.996Z,3.50
2022-12-08T02:47:02.615Z,3.50
2022-12-08T02:49:33.680Z,3.40
2022-12-08T02:52:29.478Z,3.30
2022-12-08T02:55:00.174Z,3.70
2022-12-08T02:57:36.589Z,3.30
